Time;durP1;ratioP1;P1;durP2;ratioP2;P2;SDS_P1;SDS_P2;PMS_P1;PMS_P2;Temp;Humidity;BMP_temperature;BMP_pressure;BME280_temperature;BME280_humidity;BME280_pressure;Samples;Min_cycle;Max_cycle;Signal;HPM_P1;HPM_P2
2023/04/03 04:48:45;;;;;;;17.83;12.50;;;;;;;;;;4912701;29;20052;-67
2023/04/03 04:51:11;;;;;;;16.88;11.35;;;;;;;;;;4914595;29;20040;-67
2023/04/03 04:53:38;;;;;;;17.63;12.05;;;;;;;;;;4914568;29;20080;-67
2023/04/03 04:56:05;;;;;;;17.52;12.07;;;;;;;;;;4914833;29;20111;-67
2023/04/03 04:58:31;;;;;;;19.40;11.88;;;;;;;;;;4916023;29;20112;-65
2023/04/03 05:01:00;;;;;;;16.38;11.43;;;;;;;;;;4933322;29;20088;-67
2023/04/03 05:03:26;;;;;;;19.02;12.20;;;;;;;;;;4933661;29;20035;-67
2023/04/03 05:05:52;;;;;;;19.30;12.68;;;;;;;;;;4933719;29;20091;-67
2023/04/03 05:08:18;;;;;;;19.13;12.77;;;;;;;;;;4933408;29;20391;-67
2023/04/03 05:10:45;;;;;;;18.15;12.90;;;;;;;;;;4933589;29;20035;-68
2023/04/03 05:13:11;;;;;;;21.17;13.38;;;;;;;;;;4933345;29;20047;-68
2023/04/03 05:15:37;;;;;;;19.90;13.52;;;;;;;;;;4933431;29;20063;-67
2023/04/03 05:18:04;;;;;;;22.52;13.27;;;;;;;;;;4928127;29;20033;-67
2023/04/03 05:20:30;;;;;;;20.77;13.52;;;;;;;;;;4913170;29;20068;-69
2023/04/03 05:22:56;;;;;;;22.27;13.50;;;;;;;;;;4913949;29;20028;-68
2023/04/03 05:25:22;;;;;;;18.05;13.02;;;;;;;;;;4913313;29;20099;-70
2023/04/03 05:27:49;;;;;;;19.90;13.43;;;;;;;;;;4912556;29;20024;-68
2023/04/03 05:30:15;;;;;;;18.27;13.05;;;;;;;;;;4913524;29;20139;-66
2023/04/03 05:32:41;;;;;;;16.98;12.20;;;;;;;;;;4913154;29;20039;-68
2023/04/03 05:35:07;;;;;;;17.73;13.05;;;;;;;;;;4896053;29;20024;-67
2023/04/03 05:37:34;;;;;;;20.40;13.30;;;;;;;;;;4910570;29;20392;-67
2023/04/03 05:40:00;;;;;;;18.33;12.57;;;;;;;;;;4913455;29;20068;-65
2023/04/03 05:42:26;;;;;;;16.67;12.15;;;;;;;;;;4896857;29;20040;-70
2023/04/03 05:44:52;;;;;;;21.42;13.60;;;;;;;;;;4914258;29;20024;-66
2023/04/03 05:47:18;;;;;;;19.20;12.68;;;;;;;;;;4913400;29;20089;-67
2023/04/03 05:49:45;;;;;;;18.80;12.30;;;;;;;;;;4914045;29;20392;-65
2023/04/03 05:52:17;;;;;;;17.48;11.73;;;;;;;;;;4913811;29;20036;-66
2023/04/03 05:54:46;;;;;;;23.73;13.40;;;;;;;;;;4914414;29;20115;-66
2023/04/03 05:57:12;;;;;;;21.30;14.40;;;;;;;;;;4936032;29;20047;-67
2023/04/03 05:59:38;;;;;;;20.77;14.73;;;;;;;;;;4926374;29;20036;-66
2023/04/03 06:02:04;;;;;;;23.20;14.98;;;;;;;;;;4916606;29;20506;-66
2023/04/03 06:04:30;;;;;;;28.17;16.60;;;;;;;;;;4916498;29;20024;-68
2023/04/03 06:06:57;;;;;;;24.27;15.80;;;;;;;;;;4916561;29;20055;-65
2023/04/03 06:09:24;;;;;;;20.83;15.10;;;;;;;;;;4916596;29;20016;-66
2023/04/03 06:11:51;;;;;;;25.60;16.15;;;;;;;;;;4916693;29;20468;-66
2023/04/03 06:14:17;;;;;;;21.13;15.43;;;;;;;;;;4916619;29;20384;-66
2023/04/03 06:16:44;;;;;;;24.50;17.45;;;;;;;;;;4916667;29;20024;-66
2023/04/03 06:19:11;;;;;;;25.67;15.10;;;;;;;;;;4916542;29;20111;-67
2023/04/03 06:21:37;;;;;;;26.27;17.30;;;;;;;;;;4916432;29;20028;-67
2023/04/03 06:24:04;;;;;;;24.77;17.38;;;;;;;;;;4915798;29;20080;-66
2023/04/03 06:26:30;;;;;;;24.08;17.00;;;;;;;;;;4915663;29;20101;-65
2023/04/03 06:28:56;;;;;;;25.98;16.83;;;;;;;;;;4915611;29;20645;-67
2023/04/03 06:31:22;;;;;;;24.63;16.45;;;;;;;;;;4916205;29;20086;-67
2023/04/03 06:33:48;;;;;;;24.92;17.02;;;;;;;;;;4917109;29;20056;-66
2023/04/03 06:36:19;;;;;;;25.73;16.60;;;;;;;;;;4916536;29;20034;-68
2023/04/03 06:38:45;;;;;;;23.50;16.35;;;;;;;;;;4915935;29;20110;-67
2023/04/03 06:41:11;;;;;;;24.02;16.38;;;;;;;;;;4916012;29;20032;-68
2023/04/03 06:43:37;;;;;;;25.27;16.33;;;;;;;;;;4915524;29;20575;-67
2023/04/03 06:46:03;;;;;;;19.42;12.80;;;;;;;;;;4915454;29;20060;-67
2023/04/03 06:48:30;;;;;;;14.65;10.63;;;;;;;;;;4915033;29;20151;-67
2023/04/03 06:50:56;;;;;;;13.15;8.20;;;;;;;;;;4915511;29;20031;-68
2023/04/03 06:53:22;;;;;;;11.65;6.85;;;;;;;;;;4915478;29;20036;-68
2023/04/03 06:55:48;;;;;;;14.27;8.02;;;;;;;;;;4915820;29;20087;-70
2023/04/03 06:58:15;;;;;;;14.05;7.82;;;;;;;;;;4916121;29;20043;-68
2023/04/03 07:00:41;;;;;;;10.18;5.95;;;;;;;;;;4915412;29;20029;-68
2023/04/03 07:03:07;;;;;;;8.07;5.50;;;;;;;;;;4915327;29;20119;-68
2023/04/03 07:05:33;;;;;;;8.82;5.90;;;;;;;;;;4912883;29;20072;-69
2023/04/03 07:07:59;;;;;;;9.13;5.93;;;;;;;;;;4915041;29;20028;-69
2023/04/03 07:10:25;;;;;;;8.75;6.13;;;;;;;;;;4895956;29;20488;-68
2023/04/03 07:12:52;;;;;;;12.75;9.27;;;;;;;;;;4915009;29;20179;-69
2023/04/03 07:15:18;;;;;;;21.13;14.48;;;;;;;;;;4893591;29;20037;-69
2023/04/03 07:17:44;;;;;;;8.43;5.00;;;;;;;;;;4915853;29;20453;-67
2023/04/03 07:20:11;;;;;;;7.85;5.47;;;;;;;;;;4914987;29;20392;-68
2023/04/03 07:22:37;;;;;;;7.82;5.18;;;;;;;;;;4914960;29;20083;-76
2023/04/03 07:25:04;;;;;;;9.85;6.35;;;;;;;;;;4898530;29;20496;-69
2023/04/03 07:27:30;;;;;;;9.55;6.68;;;;;;;;;;4915255;29;20024;-67
2023/04/03 07:29:56;;;;;;;12.90;6.53;;;;;;;;;;4915295;29;20032;-69
2023/04/03 07:32:22;;;;;;;9.68;7.18;;;;;;;;;;4914777;29;20039;-69
2023/04/03 07:34:48;;;;;;;8.50;4.93;;;;;;;;;;4911443;29;20032;-70
2023/04/03 07:37:14;;;;;;;7.95;5.97;;;;;;;;;;4915558;29;20381;-65
2023/04/03 07:39:44;;;;;;;10.80;6.82;;;;;;;;;;4914563;29;20038;-65
2023/04/03 07:42:12;;;;;;;13.15;7.15;;;;;;;;;;4914182;29;20036;-66
2023/04/03 07:44:38;;;;;;;9.10;6.13;;;;;;;;;;4913845;29;20103;-68
2023/04/03 07:47:04;;;;;;;10.77;7.22;;;;;;;;;;4914137;29;20040;-70
2023/04/03 07:49:31;;;;;;;10.98;5.93;;;;;;;;;;4914210;29;20108;-68
2023/04/03 07:51:58;;;;;;;8.20;4.82;;;;;;;;;;4914249;29;20044;-67
2023/04/03 07:54:24;;;;;;;10.52;5.47;;;;;;;;;;4912300;29;20032;-66
2023/04/03 07:56:50;;;;;;;14.02;6.22;;;;;;;;;;4913687;29;20063;-66
2023/04/03 07:59:16;;;;;;;9.63;5.40;;;;;;;;;;4896017;29;20131;-70
2023/04/03 08:01:42;;;;;;;8.50;5.53;;;;;;;;;;4913734;29;20028;-71
2023/04/03 08:04:08;;;;;;;9.63;5.53;;;;;;;;;;4913595;29;20550;-70
2023/04/03 08:06:36;;;;;;;13.50;6.70;;;;;;;;;;4895347;29;20052;-70
2023/04/03 08:09:03;;;;;;;7.28;4.63;;;;;;;;;;4911683;29;20111;-70
2023/04/03 08:11:30;;;;;;;5.88;3.85;;;;;;;;;;4929281;29;20028;-70
2023/04/03 08:13:57;;;;;;;7.55;4.65;;;;;;;;;;4933614;29;20042;-69
2023/04/03 08:16:26;;;;;;;7.07;4.38;;;;;;;;;;4895813;29;20033;-70
2023/04/03 08:18:52;;;;;;;9.25;5.05;;;;;;;;;;4895311;29;20048;-69
2023/04/03 08:21:18;;;;;;;5.57;3.50;;;;;;;;;;4912806;29;20036;-70
2023/04/03 08:23:44;;;;;;;10.13;5.93;;;;;;;;;;4894239;29;20071;-69
2023/04/03 08:26:12;;;;;;;8.23;4.72;;;;;;;;;;4914369;29;20480;-67
2023/04/03 08:28:38;;;;;;;6.97;4.10;;;;;;;;;;4914661;29;20032;-65
2023/04/03 08:31:06;;;;;;;8.52;6.15;;;;;;;;;;4914664;29;20375;-67
2023/04/03 08:33:32;;;;;;;9.80;5.22;;;;;;;;;;4914670;29;20161;-67
2023/04/03 08:35:58;;;;;;;8.50;4.78;;;;;;;;;;4917157;29;20032;-68
2023/04/03 08:38:24;;;;;;;20.00;13.70;;;;;;;;;;4914411;29;20040;-67
2023/04/03 08:41:00;;;;;;;9.13;3.75;;;;;;;;;;4914262;29;20028;-67
2023/04/03 08:43:32;;;;;;;7.78;4.30;;;;;;;;;;4914489;29;20624;-67
2023/04/03 08:46:00;;;;;;;8.75;4.78;;;;;;;;;;4914474;29;20103;-68
2023/04/03 08:48:39;;;;;;;9.85;5.47;;;;;;;;;;4914108;29;20107;-68
2023/04/03 08:51:12;;;;;;;8.43;4.20;;;;;;;;;;4913929;29;20021;-68
2023/04/03 08:53:40;;;;;;;6.63;3.65;;;;;;;;;;4914491;29;20036;-68
2023/04/03 08:56:09;;;;;;;7.35;4.82;;;;;;;;;;4913950;29;20028;-68
2023/04/03 08:59:07;;;;;;;6.80;4.55;;;;;;;;;;4914648;29;20480;-68
2023/04/03 09:01:37;;;;;;;5.03;3.25;;;;;;;;;;4819274;29;20058;-69
2023/04/03 09:04:09;;;;;;;5.93;3.75;;;;;;;;;;4821571;29;20191;-70
2023/04/03 09:06:36;;;;;;;5.70;3.60;;;;;;;;;;4820292;29;20117;-68
2023/04/03 09:09:02;;;;;;;4.68;3.45;;;;;;;;;;4803590;29;20071;-67
2023/04/03 09:11:46;;;;;;;5.38;3.70;;;;;;;;;;4819223;29;20046;-66
2023/04/03 09:14:17;;;;;;;5.70;3.97;;;;;;;;;;4819192;29;20484;-66
2023/04/03 09:16:57;;;;;;;4.73;3.03;;;;;;;;;;4819007;29;20079;-68
2023/04/03 09:19:35;;;;;;;6.25;4.03;;;;;;;;;;4819083;29;20546;-69
2023/04/03 09:22:23;;;;;;;7.32;4.18;;;;;;;;;;4818943;29;20042;-67
2023/04/03 09:25:00;;;;;;;5.53;3.38;;;;;;;;;;4807502;29;20567;-68
2023/04/03 09:27:27;;;;;;;5.45;4.00;;;;;;;;;;4818898;29;20080;-67
2023/04/03 09:29:54;;;;;;;7.93;3.65;;;;;;;;;;4821918;29;20117;-68
2023/04/03 09:32:25;;;;;;;5.75;3.50;;;;;;;;;;4822758;29;20054;-67
2023/04/03 09:34:51;;;;;;;7.05;4.80;;;;;;;;;;4828046;29;20567;-67
2023/04/03 09:37:36;;;;;;;6.82;5.03;;;;;;;;;;4876083;29;20415;-69
2023/04/03 09:40:04;;;;;;;7.63;4.18;;;;;;;;;;4921201;29;20024;-69
2023/04/03 09:42:31;;;;;;;8.52;4.82;;;;;;;;;;4917678;29;20032;-68
2023/04/03 09:45:01;;;;;;;6.60;4.20;;;;;;;;;;4900228;29;20028;-68
2023/04/03 09:47:30;;;;;;;35.97;13.52;;;;;;;;;;4917103;29;20060;-67
2023/04/03 09:50:29;;;;;;;8.20;4.63;;;;;;;;;;4899775;29;20421;-68
2023/04/03 09:52:55;;;;;;;7.90;4.78;;;;;;;;;;4806823;29;20151;-67
2023/04/03 09:55:29;;;;;;;6.63;4.20;;;;;;;;;;4822192;29;20057;-68
2023/04/03 09:57:57;;;;;;;12.43;7.15;;;;;;;;;;4822053;29;20174;-69
2023/04/03 10:00:25;;;;;;;8.68;5.05;;;;;;;;;;4806472;29;20039;-68
2023/04/03 10:03:00;;;;;;;5.90;3.95;;;;;;;;;;4822016;29;20046;-68
2023/04/03 10:05:32;;;;;;;11.90;5.22;;;;;;;;;;4813199;29;20420;-70
2023/04/03 10:08:09;;;;;;;7.22;4.20;;;;;;;;;;4822065;29;20046;-67
2023/04/03 10:10:36;;;;;;;11.13;5.15;;;;;;;;;;4824688;29;20038;-69
2023/04/03 10:13:11;;;;;;;9.10;4.20;;;;;;;;;;4840206;29;20057;-65
2023/04/03 10:15:42;;;;;;;6.32;4.55;;;;;;;;;;4833338;29;20051;-66
2023/04/03 10:18:27;;;;;;;6.00;4.00;;;;;;;;;;4821592;29;20396;-71
2023/04/03 10:20:55;;;;;;;7.38;4.22;;;;;;;;;;4821897;29;20050;-71
2023/04/03 10:23:23;;;;;;;8.90;5.03;;;;;;;;;;4806530;29;20041;-67
2023/04/03 10:25:55;;;;;;;6.18;4.28;;;;;;;;;;4821705;29;20494;-64
2023/04/03 10:28:21;;;;;;;7.40;4.70;;;;;;;;;;4864006;29;20050;-64
2023/04/03 10:30:51;;;;;;;5.00;3.13;;;;;;;;;;4916528;29;20447;-66
2023/04/03 10:33:23;;;;;;;5.35;3.83;;;;;;;;;;4899881;29;20036;-65
2023/04/03 10:35:49;;;;;;;15.10;6.72;;;;;;;;;;4924864;29;20021;-64
2023/04/03 10:38:34;;;;;;;5.50;3.67;;;;;;;;;;4899381;29;20040;-66
2023/04/03 10:41:00;;;;;;;6.45;3.85;;;;;;;;;;4915861;29;20107;-73
2023/04/03 10:43:30;;;;;;;3.88;2.28;;;;;;;;;;4916567;29;20036;-73
2023/04/03 10:46:02;;;;;;;4.97;3.58;;;;;;;;;;4915805;29;20036;-74
2023/04/03 10:48:34;;;;;;;6.40;4.18;;;;;;;;;;4916295;29;20074;-69
2023/04/03 10:51:15;;;;;;;5.28;3.30;;;;;;;;;;4916348;29;20075;-67
2023/04/03 10:53:43;;;;;;;6.10;4.10;;;;;;;;;;4915883;29;20496;-70
2023/04/03 10:56:10;;;;;;;14.23;6.65;;;;;;;;;;4915424;29;20108;-70
2023/04/03 10:58:39;;;;;;;12.30;5.13;;;;;;;;;;4915278;29;20119;-64
2023/04/03 11:01:10;;;;;;;6.43;4.40;;;;;;;;;;4914711;29;20032;-66
2023/04/03 11:03:40;;;;;;;6.07;4.00;;;;;;;;;;4915684;29;20028;-67
2023/04/03 11:06:09;;;;;;;6.93;4.45;;;;;;;;;;4924719;29;20028;-73
2023/04/03 11:08:56;;;;;;;6.35;4.28;;;;;;;;;;4927832;29;20036;-71
2023/04/03 11:11:25;;;;;;;9.57;5.97;;;;;;;;;;4924846;29;20040;-69
2023/04/03 11:13:54;;;;;;;6.70;4.40;;;;;;;;;;4915527;29;20031;-64
2023/04/03 11:16:26;;;;;;;7.15;3.03;;;;;;;;;;4914450;29;20063;-68
2023/04/03 11:18:55;;;;;;;7.28;4.90;;;;;;;;;;4915360;29;20047;-71
2023/04/03 11:21:41;;;;;;;8.85;4.97;;;;;;;;;;4898299;29;20481;-69
2023/04/03 11:24:16;;;;;;;4.57;2.72;;;;;;;;;;4895595;29;20044;-68
2023/04/03 11:26:42;;;;;;;6.88;3.75;;;;;;;;;;4908068;29;20032;-66
2023/04/03 11:29:19;;;;;;;8.18;4.63;;;;;;;;;;4915877;29;20032;-68
2023/04/03 11:31:54;;;;;;;6.22;4.30;;;;;;;;;;4915224;29;20043;-67
2023/04/03 11:34:39;;;;;;;8.50;5.05;;;;;;;;;;4917970;29;20047;-66
2023/04/03 11:37:11;;;;;;;6.75;3.53;;;;;;;;;;4901853;29;20385;-65
2023/04/03 11:39:38;;;;;;;6.15;3.67;;;;;;;;;;4915663;29;20084;-66
2023/04/03 11:42:34;;;;;;;6.03;3.60;;;;;;;;;;4915261;29;20489;-67
2023/04/03 11:45:18;;;;;;;7.55;4.88;;;;;;;;;;4820279;29;20054;-67
2023/04/03 11:47:49;;;;;;;7.63;4.45;;;;;;;;;;4819834;29;20115;-64
2023/04/03 11:50:34;;;;;;;8.80;5.67;;;;;;;;;;4820133;29;20126;-68
2023/04/03 11:53:00;;;;;;;5.72;3.78;;;;;;;;;;4819295;29;20101;-66
2023/04/03 11:55:32;;;;;;;18.23;10.63;;;;;;;;;;4820101;29;20038;-66
2023/04/03 11:57:58;;;;;;;6.53;3.85;;;;;;;;;;4819831;29;20045;-66
2023/04/03 12:00:42;;;;;;;6.38;3.80;;;;;;;;;;4820404;29;20034;-67
2023/04/03 12:03:24;;;;;;;4.68;2.83;;;;;;;;;;4820171;29;20590;-68
2023/04/03 12:05:51;;;;;;;7.88;4.50;;;;;;;;;;4816888;29;20461;-67
2023/04/03 12:08:17;;;;;;;5.50;3.50;;;;;;;;;;4820188;29;20054;-66
2023/04/03 12:11:03;;;;;;;7.75;4.30;;;;;;;;;;4803751;29;20122;-67
2023/04/03 12:13:29;;;;;;;5.97;4.10;;;;;;;;;;4803922;29;20548;-66
2023/04/03 12:15:57;;;;;;;7.07;5.10;;;;;;;;;;4819658;29;20076;-67
2023/04/03 12:18:44;;;;;;;15.02;7.70;;;;;;;;;;4820157;29;20181;-67
2023/04/03 12:21:12;;;;;;;13.10;6.75;;;;;;;;;;4858121;29;20047;-67
2023/04/03 12:23:57;;;;;;;7.68;5.00;;;;;;;;;;4912687;29;20484;-67
2023/04/03 12:26:27;;;;;;;104.95;46.05;;;;;;;;;;4914646;29;20388;-67
2023/04/03 12:28:55;;;;;;;7.15;4.40;;;;;;;;;;4914663;29;20043;-67
2023/04/03 12:31:23;;;;;;;5.15;3.60;;;;;;;;;;4914506;29;20032;-68
2023/04/03 12:33:57;;;;;;;6.78;3.58;;;;;;;;;;4914643;29;20063;-66
2023/04/03 12:36:38;;;;;;;12.93;7.45;;;;;;;;;;4920678;29;20027;-66
2023/04/03 12:39:15;;;;;;;34.35;18.38;;;;;;;;;;4933239;29;20027;-67
2023/04/03 12:41:44;;;;;;;18.48;10.43;;;;;;;;;;4933183;29;20064;-67
2023/04/03 12:44:21;;;;;;;8.52;5.03;;;;;;;;;;4933463;29;20597;-66
2023/04/03 12:46:52;;;;;;;7.57;3.78;;;;;;;;;;4915268;29;20048;-66
2023/04/03 12:49:34;;;;;;;9.80;6.05;;;;;;;;;;4932977;29;20042;-67
2023/04/03 12:52:00;;;;;;;6.27;4.07;;;;;;;;;;4933140;29;20035;-66
2023/04/03 12:54:42;;;;;;;7.97;3.60;;;;;;;;;;4933345;29;20031;-66
2023/04/03 12:57:14;;;;;;;13.73;7.63;;;;;;;;;;4932898;29;20027;-66
2023/04/03 12:59:41;;;;;;;;;;;;;;;;;;4916369;29;20028;-66
2023/04/03 13:02:26;;;;;;;5.72;3.95;;;;;;;;;;4933580;29;19967;-68
2023/04/03 13:04:53;;;;;;;5.25;3.50;;;;;;;;;;4933093;29;20036;-66
2023/04/03 13:07:20;;;;;;;6.18;4.28;;;;;;;;;;4925242;29;20020;-66
2023/04/03 13:09:55;;;;;;;6.68;3.83;;;;;;;;;;4933116;29;20028;-65
2023/04/03 13:12:21;;;;;;;10.95;6.22;;;;;;;;;;4925685;29;20047;-66
2023/04/03 13:14:58;;;;;;;9.25;4.78;;;;;;;;;;4933660;29;20031;-66
2023/04/03 13:17:24;;;;;;;7.65;4.57;;;;;;;;;;4933569;29;20036;-65
2023/04/03 13:19:51;;;;;;;5.72;3.55;;;;;;;;;;4933020;29;20032;-65
2023/04/03 13:22:43;;;;;;;7.90;3.72;;;;;;;;;;4933227;29;20043;-63
2023/04/03 13:25:11;;;;;;;56.03;26.15;;;;;;;;;;4917292;29;20032;-65
2023/04/03 13:27:39;;;;;;;52.63;22.88;;;;;;;;;;4912881;29;20036;-65
2023/04/03 13:30:06;;;;;;;6.50;3.70;;;;;;;;;;4914071;29;20024;-67
2023/04/03 13:32:32;;;;;;;7.40;4.63;;;;;;;;;;4896704;29;20040;-65
2023/04/03 13:34:59;;;;;;;13.32;7.25;;;;;;;;;;4896429;29;20180;-65
2023/04/03 13:37:26;;;;;;;6.97;4.32;;;;;;;;;;4913899;29;20024;-66
2023/04/03 13:40:00;;;;;;;16.67;8.77;;;;;;;;;;4914326;29;20035;-65
2023/04/03 13:42:29;;;;;;;19.13;9.27;;;;;;;;;;4913905;29;20085;-66
2023/04/03 13:45:10;;;;;;;10.98;5.97;;;;;;;;;;4914000;29;20060;-67
2023/04/03 13:47:41;;;;;;;10.27;5.57;;;;;;;;;;4913778;29;20109;-66
2023/04/03 13:50:22;;;;;;;10.32;6.30;;;;;;;;;;4914125;29;20051;-65
2023/04/03 13:53:24;;;;;;;21.58;11.40;;;;;;;;;;4914145;29;20350;-64
2023/04/03 13:55:56;;;;;;;15.30;7.68;;;;;;;;;;4819269;29;20035;-67
2023/04/03 13:58:29;;;;;;;41.42;18.63;;;;;;;;;;4803721;29;20050;-69
2023/04/03 14:01:00;;;;;;;15.52;7.68;;;;;;;;;;4818914;29;20042;-66
2023/04/03 14:03:29;;;;;;;21.20;10.32;;;;;;;;;;4818970;29;20447;-66
2023/04/03 14:05:56;;;;;;;12.60;5.90;;;;;;;;;;4818994;29;20623;-66
2023/04/03 14:08:22;;;;;;;10.25;5.55;;;;;;;;;;4819149;29;20042;-64
2023/04/03 14:10:49;;;;;;;21.50;11.73;;;;;;;;;;4818535;29;20050;-66
2023/04/03 14:13:16;;;;;;;18.85;10.05;;;;;;;;;;4818745;29;20418;-66
2023/04/03 14:15:42;;;;;;;22.10;12.32;;;;;;;;;;4820096;29;20034;-65
2023/04/03 14:18:15;;;;;;;16.17;8.40;;;;;;;;;;4821842;29;20462;-65
2023/04/03 14:20:42;;;;;;;12.38;5.95;;;;;;;;;;4821733;29;20101;-65
2023/04/03 14:23:08;;;;;;;8.05;5.22;;;;;;;;;;4805927;29;20129;-66
2023/04/03 14:25:35;;;;;;;8.30;4.90;;;;;;;;;;4822089;29;20075;-66
2023/04/03 14:28:01;;;;;;;7.07;4.80;;;;;;;;;;4821534;29;20058;-65
2023/04/03 14:30:27;;;;;;;16.70;9.25;;;;;;;;;;4895898;29;20100;-66
2023/04/03 14:32:53;;;;;;;15.50;6.53;;;;;;;;;;4917058;29;20040;-65
2023/04/03 14:35:20;;;;;;;5.95;3.45;;;;;;;;;;4916747;29;20028;-66
2023/04/03 14:37:47;;;;;;;23.02;12.70;;;;;;;;;;4917312;29;20059;-66
2023/04/03 14:40:18;;;;;;;7.72;3.92;;;;;;;;;;4916985;29;20104;-65
2023/04/03 14:42:47;;;;;;;4.75;3.13;;;;;;;;;;4910548;29;20032;-67
2023/04/03 14:45:13;;;;;;;6.15;3.40;;;;;;;;;;4916748;29;20397;-67
2023/04/03 14:47:51;;;;;;;8.77;4.20;;;;;;;;;;4915652;29;20048;-65
2023/04/03 14:50:20;;;;;;;13.27;6.43;;;;;;;;;;4915304;29;20040;-66
2023/04/03 14:52:47;;;;;;;10.20;5.25;;;;;;;;;;4915223;29;20118;-65
2023/04/03 14:55:15;;;;;;;9.52;4.50;;;;;;;;;;4915785;29;20046;-67
2023/04/03 14:57:41;;;;;;;19.65;8.20;;;;;;;;;;4916436;29;20036;-66
2023/04/03 15:00:08;;;;;;;8.95;4.50;;;;;;;;;;4916189;29;20171;-66
2023/04/03 15:02:36;;;;;;;6.22;3.45;;;;;;;;;;4921873;29;20492;-65
2023/04/03 15:05:04;;;;;;;9.57;5.18;;;;;;;;;;4934621;29;20110;-66
2023/04/03 15:07:31;;;;;;;12.00;4.00;;;;;;;;;;4935300;29;20035;-66
2023/04/03 15:09:57;;;;;;;8.80;4.00;;;;;;;;;;4935202;29;20082;-65
2023/04/03 15:12:24;;;;;;;8.88;3.63;;;;;;;;;;4934517;29;20039;-66
2023/04/03 15:14:50;;;;;;;6.82;3.13;;;;;;;;;;4934732;29;20027;-66
2023/04/03 15:17:18;;;;;;;11.23;5.47;;;;;;;;;;4935246;29;20432;-66
2023/04/03 15:19:44;;;;;;;9.73;3.70;;;;;;;;;;4935005;29;20048;-65
2023/04/03 15:22:13;;;;;;;54.28;25.13;;;;;;;;;;4934824;29;20159;-66
2023/04/03 15:24:39;;;;;;;19.60;8.23;;;;;;;;;;4935066;29;20028;-65
2023/04/03 15:27:05;;;;;;;12.40;5.78;;;;;;;;;;4934854;29;20560;-66
2023/04/03 15:29:32;;;;;;;10.68;4.38;;;;;;;;;;4935014;29;20079;-67
2023/04/03 15:31:58;;;;;;;10.63;4.70;;;;;;;;;;4934572;29;20029;-65
2023/04/03 15:34:24;;;;;;;13.77;4.65;;;;;;;;;;4934986;29;20090;-67
2023/04/03 15:36:54;;;;;;;7.03;2.78;;;;;;;;;;4934472;29;20027;-66
2023/04/03 15:39:20;;;;;;;6.03;3.63;;;;;;;;;;4934522;29;20024;-65
2023/04/03 15:41:46;;;;;;;8.85;3.92;;;;;;;;;;4934348;29;20111;-67
2023/04/03 15:44:13;;;;;;;18.42;7.88;;;;;;;;;;4934912;29;20047;-66
2023/04/03 15:46:39;;;;;;;8.80;3.80;;;;;;;;;;4933984;29;20027;-66
2023/04/03 15:49:06;;;;;;;10.63;3.28;;;;;;;;;;4934100;29;20032;-66
2023/04/03 15:51:32;;;;;;;14.75;6.85;;;;;;;;;;4934073;29;20091;-66
2023/04/03 15:53:58;;;;;;;8.80;4.70;;;;;;;;;;4916743;29;20518;-69
2023/04/03 15:56:24;;;;;;;6.40;3.50;;;;;;;;;;4934398;29;20099;-68
2023/04/03 15:58:50;;;;;;;18.70;9.18;;;;;;;;;;4934342;29;20460;-69
2023/04/03 16:01:16;;;;;;;10.82;6.07;;;;;;;;;;4934200;29;20032;-68
2023/04/03 16:03:44;;;;;;;8.68;4.38;;;;;;;;;;4933937;29;20444;-65
2023/04/03 16:06:12;;;;;;;14.70;7.30;;;;;;;;;;4934160;29;20051;-67
2023/04/03 16:08:38;;;;;;;12.38;4.47;;;;;;;;;;4934309;29;20110;-67
2023/04/03 16:11:04;;;;;;;11.93;5.68;;;;;;;;;;4934276;29;20419;-64
2023/04/03 16:13:30;;;;;;;7.30;4.00;;;;;;;;;;4933957;29;20035;-67
2023/04/03 16:15:56;;;;;;;10.18;4.18;;;;;;;;;;4934021;29;20035;-66
2023/04/03 16:18:22;;;;;;;8.15;3.78;;;;;;;;;;4934195;29;20094;-66
2023/04/03 16:20:48;;;;;;;4.80;3.13;;;;;;;;;;4933765;29;20023;-66
2023/04/03 16:23:14;;;;;;;5.70;3.22;;;;;;;;;;4933929;29;20463;-66
2023/04/03 16:25:45;;;;;;;8.40;3.97;;;;;;;;;;4934285;29;20028;-64
2023/04/03 16:28:11;;;;;;;7.78;3.40;;;;;;;;;;4933701;29;20031;-68
2023/04/03 16:30:37;;;;;;;3.15;2.17;;;;;;;;;;4933607;29;20028;-68
2023/04/03 16:33:03;;;;;;;5.43;3.15;;;;;;;;;;4921528;29;20036;-66
2023/04/03 16:35:30;;;;;;;10.23;3.75;;;;;;;;;;4915427;29;20115;-66
2023/04/03 16:37:56;;;;;;;6.82;3.03;;;;;;;;;;4927615;29;20087;-66
2023/04/03 16:40:22;;;;;;;11.50;3.95;;;;;;;;;;4933536;29;20425;-67
2023/04/03 16:42:48;;;;;;;10.10;4.93;;;;;;;;;;4933066;29;20031;-67
2023/04/03 16:45:14;;;;;;;9.55;3.83;;;;;;;;;;4933268;29;20503;-68
2023/04/03 16:47:40;;;;;;;12.95;3.30;;;;;;;;;;4932325;29;20051;-66
2023/04/03 16:50:06;;;;;;;5.97;3.50;;;;;;;;;;4933243;29;20365;-65
2023/04/03 16:52:32;;;;;;;5.75;2.25;;;;;;;;;;4933005;29;20035;-64
2023/04/03 16:54:59;;;;;;;7.55;3.60;;;;;;;;;;4916256;29;20031;-66
2023/04/03 16:57:25;;;;;;;78.03;33.50;;;;;;;;;;4933419;29;20110;-66
2023/04/03 16:59:51;;;;;;;10.57;4.35;;;;;;;;;;4932778;29;20034;-67
2023/04/03 17:02:18;;;;;;;7.53;3.05;;;;;;;;;;4933147;29;20050;-69
2023/04/03 17:04:44;;;;;;;5.07;2.92;;;;;;;;;;4933425;29;20098;-65
2023/04/03 17:07:10;;;;;;;16.65;7.35;;;;;;;;;;4933030;29;20112;-68
2023/04/03 17:09:37;;;;;;;24.50;8.45;;;;;;;;;;4933174;29;20024;-71
2023/04/03 17:12:03;;;;;;;11.57;3.30;;;;;;;;;;4933118;29;20038;-69
2023/04/03 17:14:29;;;;;;;6.00;2.60;;;;;;;;;;4933242;29;20028;-69
2023/04/03 17:16:55;;;;;;;5.40;2.08;;;;;;;;;;4933031;29;20043;-69
2023/04/03 17:19:23;;;;;;;12.57;4.07;;;;;;;;;;4933221;29;20087;-69
2023/04/03 17:21:49;;;;;;;9.07;3.05;;;;;;;;;;4932830;29;20031;-68
2023/04/03 17:24:15;;;;;;;8.95;3.63;;;;;;;;;;4933170;29;20043;-69
2023/04/03 17:26:42;;;;;;;15.13;4.13;;;;;;;;;;4932562;29;20058;-69
2023/04/03 17:29:08;;;;;;;6.70;2.33;;;;;;;;;;4933079;29;20028;-68
2023/04/03 17:31:34;;;;;;;6.95;1.35;;;;;;;;;;4932628;29;20024;-69
2023/04/03 17:34:00;;;;;;;10.90;3.53;;;;;;;;;;4915610;29;20400;-68
2023/04/03 17:36:36;;;;;;;16.77;6.55;;;;;;;;;;4933145;29;20031;-69
2023/04/03 17:39:02;;;;;;;13.02;3.25;;;;;;;;;;4915673;29;20040;-67
2023/04/03 17:41:28;;;;;;;7.88;2.30;;;;;;;;;;4932760;29;20036;-69
2023/04/03 17:43:55;;;;;;;9.63;3.58;;;;;;;;;;4931730;29;20032;-69
2023/04/03 17:46:22;;;;;;;7.68;2.13;;;;;;;;;;4932165;29;20032;-68
2023/04/03 17:48:48;;;;;;;14.90;3.50;;;;;;;;;;4932654;29;20048;-69
2023/04/03 17:51:15;;;;;;;5.80;2.38;;;;;;;;;;4934882;29;20028;-69
2023/04/03 17:53:43;;;;;;;7.90;3.05;;;;;;;;;;4936481;29;20091;-70
2023/04/03 17:56:13;;;;;;;11.65;2.65;;;;;;;;;;4923268;29;20025;-70
2023/04/03 17:58:39;;;;;;;6.88;2.20;;;;;;;;;;4914400;29;20024;-69
2023/04/03 18:01:13;;;;;;;7.40;2.22;;;;;;;;;;4916407;29;20032;-71
2023/04/03 18:03:40;;;;;;;9.30;3.10;;;;;;;;;;4917267;29;20481;-70
2023/04/03 18:06:08;;;;;;;13.93;2.47;;;;;;;;;;4917167;29;20115;-70
2023/04/03 18:08:36;;;;;;;9.73;2.10;;;;;;;;;;4917155;29;20056;-70
2023/04/03 18:11:03;;;;;;;12.90;4.60;;;;;;;;;;4917448;29;20084;-72
2023/04/03 18:13:29;;;;;;;10.40;4.20;;;;;;;;;;4917003;29;20043;-70
2023/04/03 18:15:55;;;;;;;6.72;2.00;;;;;;;;;;4916644;29;20024;-70
2023/04/03 18:18:21;;;;;;;5.18;1.90;;;;;;;;;;4917199;29;20448;-69
2023/04/03 18:20:47;;;;;;;7.38;1.48;;;;;;;;;;4916539;29;20540;-68
2023/04/03 18:23:13;;;;;;;10.95;3.15;;;;;;;;;;4916325;29;20464;-68
2023/04/03 18:25:39;;;;;;;12.65;2.78;;;;;;;;;;4916234;29;20052;-68
2023/04/03 18:28:05;;;;;;;5.93;1.63;;;;;;;;;;4931350;29;20122;-68
2023/04/03 18:30:33;;;;;;;12.93;2.83;;;;;;;;;;4934827;29;20023;-68
2023/04/03 18:32:59;;;;;;;13.73;4.50;;;;;;;;;;4934846;29;20111;-68
2023/04/03 18:35:25;;;;;;;6.03;1.83;;;;;;;;;;4916802;29;20428;-69
2023/04/03 18:37:51;;;;;;;7.60;2.08;;;;;;;;;;4934606;29;20036;-68
2023/04/03 18:40:17;;;;;;;10.82;3.15;;;;;;;;;;4934396;29;20027;-68
2023/04/03 18:42:43;;;;;;;7.80;2.70;;;;;;;;;;4934489;29;20020;-68
2023/04/03 18:45:11;;;;;;;17.05;4.70;;;;;;;;;;4932496;29;20119;-68
2023/04/03 18:47:37;;;;;;;10.77;2.63;;;;;;;;;;4934393;29;20098;-70
2023/04/03 18:50:04;;;;;;;6.30;1.65;;;;;;;;;;4934177;29;20023;-67
2023/04/03 18:52:30;;;;;;;8.20;1.98;;;;;;;;;;4934301;29;20428;-68
2023/04/03 18:54:56;;;;;;;13.20;3.70;;;;;;;;;;4933752;29;20027;-68
2023/04/03 18:57:23;;;;;;;12.82;2.28;;;;;;;;;;4934202;29;20389;-67
2023/04/03 18:59:49;;;;;;;12.75;3.78;;;;;;;;;;4934555;29;20118;-68
2023/04/03 19:02:17;;;;;;;12.43;3.65;;;;;;;;;;4933659;29;20433;-68
2023/04/03 19:04:43;;;;;;;9.55;1.98;;;;;;;;;;4929670;29;20030;-69
2023/04/03 19:07:09;;;;;;;14.43;2.55;;;;;;;;;;4934977;29;20052;-69
2023/04/03 19:09:37;;;;;;;30.38;7.40;;;;;;;;;;4917788;29;20040;-68
2023/04/03 19:12:03;;;;;;;12.73;2.15;;;;;;;;;;4934911;29;20352;-70
2023/04/03 19:14:29;;;;;;;15.80;2.33;;;;;;;;;;4935138;29;20027;-70
2023/04/03 19:16:55;;;;;;;11.15;2.78;;;;;;;;;;4934527;29;20027;-70
2023/04/03 19:19:21;;;;;;;29.73;7.63;;;;;;;;;;4933891;29;20163;-70
2023/04/03 19:21:47;;;;;;;13.18;2.53;;;;;;;;;;4933971;29;20094;-69
2023/04/03 19:24:13;;;;;;;24.00;6.97;;;;;;;;;;4934061;29;20078;-70
2023/04/03 19:26:40;;;;;;;13.13;2.10;;;;;;;;;;4934344;29;20035;-69
2023/04/03 19:29:06;;;;;;;10.43;2.33;;;;;;;;;;4934278;29;20075;-68
2023/04/03 19:31:33;;;;;;;9.50;3.30;;;;;;;;;;4931383;29;20064;-72
2023/04/03 19:34:01;;;;;;;9.18;2.42;;;;;;;;;;4932816;29;20036;-68